• Join FlightAware (Why Join?)
  • Login
  • US Flag 
09:23PM EDT


 

Airport Tracker/Info


-or-


 

Live Flight TrackerFlight Track Log ✈ UAL4422 ✈ 11-Apr-2013 ✈ KIAH - KMAF

Flight Track Log - Related Links

Times and Time Zones

All times are in EDT time to prevent confusion due to time zone crossing. See the UAL4422 flight status page for this flight to view local times or setup timezone preferences in your user account.

Time Position Orientation Groundspeed Altitude Reporting Facility
EDT Latitude Longitude Course Direction KTS MPH feet Rate Location/Type
06:18PM 29.9842 -95.3600 276° West 168 193 900  Level Houston Center
06:19PM 29.9894 -95.3933 280° West 186 214 2,300 1,800 Climbing Houston Center
06:20PM 29.9914 -95.4631 272° West 254 292 3,900 2,100 Climbing Houston Center
06:21PM 30.0172 -95.6543 277° West  Level FlightAware Approximate
06:21PM 29.9956 -95.5261 274° West 244 281 6,600  Level Houston Center
06:22PM 30.0291 -95.7617 277° West  Level FlightAware Approximate
06:22PM 30.0025 -95.6189 275° West 244 281 9,700  Level Houston Center
06:23PM 30.0392 -95.8694 276° West  Level FlightAware Approximate
06:23PM 30.0150 -95.6992 280° West 255 293 10,900  Level Houston Center
06:24PM 30.0303 -95.7969 280° West 305 351 11,900 1,380 Climbing Houston Center
06:25PM 30.0461 -95.8975 280° West 318 366 13,800 1,500 Climbing Houston Center
06:26PM 30.0625 -96.0000 280° West 325 374 15,000 1,320 Climbing Houston Center
06:27PM 30.0794 -96.1181 279° West 324 373 16,600 1,140 Climbing Houston Center
06:28PM 30.0964 -96.2250 280° West 337 388 17,400 840 Climbing Houston Center
06:29PM 30.1128 -96.3339 280° West 344 396 18,400 960 Climbing Houston Center
06:30PM 30.1319 -96.4631 280° West 351 404 19,500 960 Climbing Houston Center
06:31PM 30.1489 -96.5781 280° West 358 412 20,500 1,020 Climbing Houston Center
06:32PM 30.1675 -96.6911 281° West 355 409 21,700 1,200 Climbing Houston Center
06:33PM 30.1839 -96.8039 280° West 353 406 23,000 1,260 Climbing Houston Center
06:34PM 30.2008 -96.9164 280° West 352 405 24,400 1,320 Climbing Houston Center
06:35PM 30.2172 -97.0253 280° West 343 395 25,800 1,440 Climbing Houston Center
06:36PM 30.2325 -97.1339 279° West 338 389 27,400 1,500 Climbing Houston Center
06:37PM 30.2514 -97.2581 280° West 332 382 28,900 1,320 Climbing Houston Center
06:38PM 30.2667 -97.3633 280° West 327 376 30,200 1,380 Climbing Houston Center
06:39PM 30.2819 -97.4667 280° West 324 373 31,800 840 Climbing Houston Center
06:40PM 30.3033 -97.5725 283° West 340 391 32,000 60 Climbing Houston Center
06:41PM 30.3450 -97.6828 294° West 365 420 32,000  Level Houston Center
06:42PM 30.3900 -97.8019 294° West 393 452 32,000  Level Houston Center
06:43PM 30.4350 -97.9203 294° West 396 456 32,000  Level Houston Center
06:45PM 30.4783 -98.0397 293° West 397 457 32,000  Level Houston Center
06:46PM 30.5239 -98.1586 294° West 397 457 32,000  Level Houston Center
06:47PM 30.5744 -98.2975 293° West 397 457 32,000  Level Houston Center
06:48PM 30.6194 -98.4153 294° West 395 455 32,000  Level Houston Center
06:49PM 30.6631 -98.5333 293° West 394 453 32,000  Level Houston Center
06:50PM 30.7067 -98.6522 293° West 395 455 32,000  Level Houston Center
06:51PM 30.7500 -98.7717 293° West 397 457 32,000  Level Houston Center
06:52PM 30.7944 -98.8900 294° West 396 456 32,000  Level Houston Center
06:53PM 30.8367 -99.0100 292° West 397 457 32,000  Level Houston Center
06:54PM 30.8792 -99.1275 293° West 393 452 32,000  Level Houston Center
06:55PM 30.9286 -99.2608 293° West 396 456 32,000  Level Houston Center
06:56PM 30.9708 -99.3792 293° West 397 457 32,000  Level Houston Center
06:57PM 31.0117 -99.4961 292° West 393 452 32,000  Level Houston Center
06:58PM 31.0539 -99.6142 293° West 396 456 32,000  Level Houston Center
06:59PM 31.1042 -99.7558 293° West 396 456 32,000  Level Houston Center
07:00PM 31.1469 -99.8753 293° West 400 460 32,000  Level Houston Center
07:01PM 31.1894 -99.9919 293° West 392 451 32,000  Level Houston Center
07:02PM 31.2317 -100.1111 293° West 395 455 32,000  Level Houston Center
07:03PM 31.2728 -100.2286 292° West 391 450 32,000  Level Houston Center
07:04PM 31.3147 -100.3492 292° West 394 453 32,000  Level Houston Center
07:05PM 31.3481 -100.4442 292° West 398 458 32,000 -900 Level Fort Worth Center
07:06PM 31.3889 -100.5647 292° West 398 458 30,500 -1,740 Descending Fort Worth Center
07:07PM 31.4275 -100.6803 291° West 392 451 28,600 -2,220 Descending Fort Worth Center
07:08PM 31.4703 -100.8011 293° West 398 458 26,100 -2,580 Descending Fort Worth Center
07:09PM 31.5128 -100.9247 292° West 403 464 23,500 -2,580 Descending Fort Worth Center
07:10PM 31.5556 -101.0433 293° West 403 464 21,000 -2,520 Descending Fort Worth Center
07:11PM 31.5939 -101.1594 291° West 391 450 18,500 -2,700 Descending Fort Worth Center
07:12PM 31.6342 -101.2708 293° West 386 444 15,700 -2,100 Descending Fort Worth Center
07:13PM 31.6686 -101.3772 291° West 366 421 14,300 -1,080 Descending Fort Worth Center
07:14PM 31.7047 -101.4861 291° West 360 414 13,600 -1,320 Descending Fort Worth Center
07:15PM 31.7386 -101.5950 290° West 360 414 11,700 -1,680 Descending Fort Worth Center
07:16PM 31.7731 -101.6919 293° West 344 396 10,300 -1,500 Descending Fort Worth Center
07:17PM 31.7994 -101.7764 290° West 308 354 8,800 -1,680 Descending Fort Worth Center
07:18PM 31.8258 -101.8533 292° West 277 319 7,000 -1,560 Descending Fort Worth Center
07:19PM 31.8522 -101.9303 292° West 263 303 5,700 -1,020 Descending Fort Worth Center
07:20PM 31.8783 -102.0172 289° West 258 297 5,000 -300 Descending Fort Worth Center
07:21PM 31.9028 -102.0919 291° West 253 291 5,100 -480 Climbing Fort Worth Center
07:22PM 31.9217 -102.1467 292° West 226 260 4,100 -1,080 Descending Fort Worth Center
07:23PM 31.9367 -102.1867 294° West 175 201 3,000 -1,140 Descending Fort Worth Center